Airfield :
LOGIN :

Register | Disclaimer

   EN    FR    IT 

 










Legend :    VFR   Marginal VFR   IFR   Intensive IFR   Very Intensive IFR
Visi :
Ceiling :
>= 8 km
>= 3000ft
5 to 8 km
1000 to 3000 ft
1500m to 5 km
500 to 1000 ft
800 to 1500m
200 to 500 ft
< 800m
< 200 ft
Symbols :   Thunderstorms  Fog  Heavy snow  Heavy precipitations  Wind > 20 kt
SIGMETs :     Misc.  Thunderstorms  Icing  Turbulence  Mountain Waves  Volcanic Ashes







- Airport Elevation : 788 ft
- IATA code : DCM
- Download approach charts


LFCK - Castres-Mazamet

CURRENT METAR :
  • 261630Z AUTO 31016KT 280V340 CAVOK 15/M04 Q1024 BECMG VRB03KT

EXPIRED METARs :
  • 261600Z AUTO 32014KT CAVOK 15/M03 Q1024 NOSIG
  • 261530Z AUTO 32015KT CAVOK 15/M04 Q1025 NOSIG
  • 261500Z AUTO 32017KT 290V360 CAVOK 15/M04 Q1025 NOSIG
  • 261430Z AUTO 32014KT CAVOK 15/M03 Q1025 NOSIG
  • 261400Z AUTO 32015KT 290V350 CAVOK 15/M04 Q1025 NOSIG

TAF TAF LFCK
Valid from the 26 at 15:00 until the 27 at 00:00 UTC


261400Z 2615/2624 32014KT CAVOK
BECMG 2618/2620 VRB03KT
No reported NOTAMs for that airfield.
2 SIGMETs reported for the Bordeaux FIR (LFBB) :
 
Severe turbulence
LFBB SIGMET 5 VALID 261600/262000 LFPW
LFBB BORDEAUX FIR/UIR SEV TURB FCST WI N4245 E00230 - N4215 E00230 - N4230 E00145 - N4245 E00200 - N4245 E00230 SFC/FL070 STNR WKN=
Severe mountain waves
LFBB SIGMET 4 VALID 261500/261700 LFPW
LFBB BORDEAUX FIR/UIR SEV MTW FCST WI N4245 E00230 - N4215 E00230 - N4245 E00015 - N4315 E00030 - N4245 E00230 FL300/380 STNR WKN=



MET'MAP, your aeronautical weather chart ! - Copyright ORBIFLY December 2007 - Disclaimer

ORBIFLY MET'MAP TEAM :

Programming & Development : Alexandra Zaïnal
Concept & Development : Baudouin d'Aumeries
Co-Development & Prog : Marc-Olivier Méhu
Technical & hardware support : Manuel Goepfert

Contact : metmap@orbifly.com




SOURCES & CREDITS :

   NOAA